sensor_id;sensor_type;location;lat;lon;timestamp;pressure;altitude;pressure_sealevel;temperature;humidity
31096;BME280;17749;51.962;8.560;2023-07-31T05:01:20;99401.84;;;15.32;100.00
31096;BME280;17749;51.962;8.560;2023-07-31T05:03:47;99398.44;;;15.30;100.00
31096;BME280;17749;51.962;8.560;2023-07-31T05:06:15;99397.78;;;15.27;100.00
31096;BME280;17749;51.962;8.560;2023-07-31T05:08:42;99400.25;;;15.30;100.00
31096;BME280;17749;51.962;8.560;2023-07-31T05:11:09;99400.59;;;15.25;100.00
31096;BME280;17749;51.962;8.560;2023-07-31T05:13:50;99411.19;;;15.27;100.00
31096;BME280;17749;51.962;8.560;2023-07-31T05:19:20;99403.91;;;15.29;100.00
31096;BME280;17749;51.962;8.560;2023-07-31T05:21:47;99403.06;;;15.28;100.00
31096;BME280;17749;51.962;8.560;2023-07-31T05:24:14;99400.91;;;15.33;100.00
31096;BME280;17749;51.962;8.560;2023-07-31T05:26:41;99393.81;;;15.32;100.00
31096;BME280;17749;51.962;8.560;2023-07-31T05:29:08;99399.94;;;15.34;100.00
31096;BME280;17749;51.962;8.560;2023-07-31T05:31:35;99396.06;;;15.39;100.00
31096;BME280;17749;51.962;8.560;2023-07-31T05:34:02;99405.06;;;15.38;100.00
31096;BME280;17749;51.962;8.560;2023-07-31T05:36:29;99404.00;;;15.40;100.00
31096;BME280;17749;51.962;8.560;2023-07-31T05:38:56;99400.47;;;15.40;100.00
31096;BME280;17749;51.962;8.560;2023-07-31T05:41:23;99405.06;;;15.38;100.00
31096;BME280;17749;51.962;8.560;2023-07-31T05:43:50;99408.72;;;15.37;100.00
31096;BME280;17749;51.962;8.560;2023-07-31T05:46:18;99407.66;;;15.39;100.00
31096;BME280;17749;51.962;8.560;2023-07-31T05:48:45;99407.56;;;15.41;100.00
31096;BME280;17749;51.962;8.560;2023-07-31T05:51:12;99401.84;;;15.45;100.00
31096;BME280;17749;51.962;8.560;2023-07-31T05:53:38;99395.63;;;15.45;100.00
31096;BME280;17749;51.962;8.560;2023-07-31T05:56:07;99398.84;;;15.50;100.00
31096;BME280;17749;51.962;8.560;2023-07-31T05:58:34;99396.28;;;15.48;100.00
31096;BME280;17749;51.962;8.560;2023-07-31T06:01:01;99395.41;;;15.48;100.00
31096;BME280;17749;51.962;8.560;2023-07-31T06:03:28;99393.69;;;15.47;100.00
31096;BME280;17749;51.962;8.560;2023-07-31T06:05:55;99388.34;;;15.47;100.00
31096;BME280;17749;51.962;8.560;2023-07-31T06:08:22;99385.31;;;15.51;100.00
31096;BME280;17749;51.962;8.560;2023-07-31T06:10:49;99387.66;;;15.56;100.00
31096;BME280;17749;51.962;8.560;2023-07-31T06:13:16;99388.84;;;15.65;100.00
31096;BME280;17749;51.962;8.560;2023-07-31T06:15:43;99381.63;;;15.65;100.00
31096;BME280;17749;51.962;8.560;2023-07-31T06:18:10;99393.78;;;15.71;100.00
31096;BME280;17749;51.962;8.560;2023-07-31T06:20:37;99391.00;;;15.72;100.00
31096;BME280;17749;51.962;8.560;2023-07-31T06:23:07;99382.94;;;15.72;100.00
31096;BME280;17749;51.962;8.560;2023-07-31T06:25:34;99380.97;;;15.74;100.00
31096;BME280;17749;51.962;8.560;2023-07-31T06:28:01;99384.88;;;15.70;100.00
31096;BME280;17749;51.962;8.560;2023-07-31T06:30:28;99391.94;;;15.71;100.00
31096;BME280;17749;51.962;8.560;2023-07-31T06:32:55;99382.72;;;15.75;100.00
31096;BME280;17749;51.962;8.560;2023-07-31T06:35:22;99394.94;;;15.80;100.00
31096;BME280;17749;51.962;8.560;2023-07-31T06:37:49;99387.84;;;15.78;100.00
31096;BME280;17749;51.962;8.560;2023-07-31T06:40:17;99382.72;;;15.75;100.00
31096;BME280;17749;51.962;8.560;2023-07-31T06:42:46;99383.66;;;15.74;100.00
31096;BME280;17749;51.962;8.560;2023-07-31T06:45:13;99375.63;;;15.74;100.00
31096;BME280;17749;51.962;8.560;2023-07-31T06:47:40;99366.63;;;15.75;100.00
31096;BME280;17749;51.962;8.560;2023-07-31T06:50:08;99355.66;;;15.78;100.00
31096;BME280;17749;51.962;8.560;2023-07-31T06:52:35;99365.09;;;15.71;100.00
31096;BME280;17749;51.962;8.560;2023-07-31T06:55:23;99364.88;;;15.74;100.00
31096;BME280;17749;51.962;8.560;2023-07-31T06:57:53;99360.91;;;15.80;100.00
31096;BME280;17749;51.962;8.560;2023-07-31T07:00:21;99363.78;;;15.77;100.00
31096;BME280;17749;51.962;8.560;2023-07-31T07:02:49;99364.22;;;15.84;100.00
31096;BME280;17749;51.962;8.560;2023-07-31T07:05:17;99360.44;;;15.86;100.00
31096;BME280;17749;51.962;8.560;2023-07-31T07:07:45;99362.28;;;15.86;100.00
31096;BME280;17749;51.962;8.560;2023-07-31T07:10:12;99363.56;;;15.93;100.00
31096;BME280;17749;51.962;8.560;2023-07-31T07:12:39;99357.44;;;15.91;100.00
31096;BME280;17749;51.962;8.560;2023-07-31T07:15:06;99361.81;;;15.92;100.00
31096;BME280;17749;51.962;8.560;2023-07-31T07:17:33;99367.81;;;15.95;100.00
31096;BME280;17749;51.962;8.560;2023-07-31T07:20:00;99357.72;;;15.99;100.00
31096;BME280;17749;51.962;8.560;2023-07-31T07:22:28;99368.22;;;16.02;100.00
31096;BME280;17749;51.962;8.560;2023-07-31T07:24:57;99374.06;;;15.96;100.00
31096;BME280;17749;51.962;8.560;2023-07-31T07:27:24;99374.28;;;15.93;100.00
31096;BME280;17749;51.962;8.560;2023-07-31T07:29:51;99380.50;;;15.93;100.00
31096;BME280;17749;51.962;8.560;2023-07-31T07:32:20;99377.47;;;15.98;100.00
31096;BME280;17749;51.962;8.560;2023-07-31T07:34:47;99379.19;;;15.99;100.00
31096;BME280;17749;51.962;8.560;2023-07-31T07:37:15;99379.81;;;16.03;100.00
31096;BME280;17749;51.962;8.560;2023-07-31T07:39:43;99380.91;;;16.00;100.00
31096;BME280;17749;51.962;8.560;2023-07-31T07:42:10;99392.41;;;16.02;100.00
31096;BME280;17749;51.962;8.560;2023-07-31T07:44:37;99382.63;;;16.01;100.00
31096;BME280;17749;51.962;8.560;2023-07-31T07:47:04;99378.22;;;16.00;100.00
31096;BME280;17749;51.962;8.560;2023-07-31T07:49:34;99368.69;;;15.96;100.00
31096;BME280;17749;51.962;8.560;2023-07-31T07:52:02;99361.59;;;15.95;100.00
31096;BME280;17749;51.962;8.560;2023-07-31T07:54:30;99362.44;;;15.95;100.00
31096;BME280;17749;51.962;8.560;2023-07-31T07:56:59;99366.72;;;15.98;100.00
31096;BME280;17749;51.962;8.560;2023-07-31T07:59:26;99358.19;;;15.93;100.00
31096;BME280;17749;51.962;8.560;2023-07-31T08:01:53;99352.16;;;15.89;100.00
31096;BME280;17749;51.962;8.560;2023-07-31T08:04:20;99347.78;;;15.88;100.00
31096;BME280;17749;51.962;8.560;2023-07-31T08:06:47;99352.06;;;15.91;100.00
31096;BME280;17749;51.962;8.560;2023-07-31T08:09:14;99355.25;;;15.96;100.00
31096;BME280;17749;51.962;8.560;2023-07-31T08:11:41;99344.81;;;16.04;100.00
31096;BME280;17749;51.962;8.560;2023-07-31T08:14:08;99338.97;;;16.10;100.00
31096;BME280;17749;51.962;8.560;2023-07-31T08:16:35;99339.63;;;16.14;100.00
31096;BME280;17749;51.962;8.560;2023-07-31T08:19:03;99348.53;;;16.14;100.00
31096;BME280;17749;51.962;8.560;2023-07-31T08:21:31;99336.94;;;16.14;100.00
31096;BME280;17749;51.962;8.560;2023-07-31T08:23:58;99334.84;;;16.17;100.00
31096;BME280;17749;51.962;8.560;2023-07-31T08:26:25;99329.13;;;16.22;100.00
31096;BME280;17749;51.962;8.560;2023-07-31T08:28:52;99335.13;;;16.26;100.00
31096;BME280;17749;51.962;8.560;2023-07-31T08:31:19;99327.31;;;16.23;100.00
31096;BME280;17749;51.962;8.560;2023-07-31T08:33:46;99332.16;;;16.17;100.00
31096;BME280;17749;51.962;8.560;2023-07-31T08:36:13;99332.03;;;16.19;100.00
31096;BME280;17749;51.962;8.560;2023-07-31T08:38:40;99325.81;;;16.18;100.00
31096;BME280;17749;51.962;8.560;2023-07-31T08:41:07;99314.22;;;16.18;100.00
31096;BME280;17749;51.962;8.560;2023-07-31T08:43:35;99309.25;;;16.25;100.00
31096;BME280;17749;51.962;8.560;2023-07-31T08:46:03;99316.09;;;16.29;100.00
31096;BME280;17749;51.962;8.560;2023-07-31T08:48:31;99300.72;;;16.31;100.00
31096;BME280;17749;51.962;8.560;2023-07-31T08:50:59;99306.81;;;16.33;100.00
31096;BME280;17749;51.962;8.560;2023-07-31T08:53:26;99308.28;;;16.37;100.00
31096;BME280;17749;51.962;8.560;2023-07-31T08:55:53;99312.72;;;16.38;100.00
31096;BME280;17749;51.962;8.560;2023-07-31T08:58:21;99311.47;;;16.31;100.00
31096;BME280;17749;51.962;8.560;2023-07-31T09:00:50;99309.50;;;16.33;100.00
31096;BME280;17749;51.962;8.560;2023-07-31T09:03:22;99310.72;;;16.40;100.00
31096;BME280;17749;51.962;8.560;2023-07-31T09:05:50;99315.41;;;16.38;100.00
31096;BME280;17749;51.962;8.560;2023-07-31T09:08:20;99311.97;;;16.36;100.00
31096;BME280;17749;51.962;8.560;2023-07-31T09:10:48;99311.97;;;16.36;100.00
31096;BME280;17749;51.962;8.560;2023-07-31T09:13:18;99312.19;;;16.33;100.00
31096;BME280;17749;51.962;8.560;2023-07-31T09:15:46;99313.66;;;16.37;100.00
31096;BME280;17749;51.962;8.560;2023-07-31T09:18:14;99305.09;;;16.32;100.00
31096;BME280;17749;51.962;8.560;2023-07-31T09:20:45;99308.28;;;16.37;100.00
31096;BME280;17749;51.962;8.560;2023-07-31T09:23:14;99313.91;;;16.34;100.00
31096;BME280;17749;51.962;8.560;2023-07-31T09:25:45;99303.41;;;16.42;100.00
31096;BME280;17749;51.962;8.560;2023-07-31T09:28:12;99303.69;;;16.50;100.00
31096;BME280;17749;51.962;8.560;2023-07-31T09:30:50;99302.00;;;16.60;100.00
31096;BME280;17749;51.962;8.560;2023-07-31T09:33:18;99294.78;;;16.61;100.00
31096;BME280;17749;51.962;8.560;2023-07-31T09:35:47;99290.03;;;16.64;100.00
31096;BME280;17749;51.962;8.560;2023-07-31T09:38:15;99294.06;;;16.70;100.00
31096;BME280;17749;51.962;8.560;2023-07-31T09:40:45;99295.66;;;16.73;100.00
31096;BME280;17749;51.962;8.560;2023-07-31T09:43:16;99287.13;;;16.79;100.00
31096;BME280;17749;51.962;8.560;2023-07-31T09:45:44;99281.97;;;16.76;100.00
31096;BME280;17749;51.962;8.560;2023-07-31T09:48:16;99282.72;;;16.67;100.00
31096;BME280;17749;51.962;8.560;2023-07-31T09:50:46;99277.56;;;16.63;100.00
31096;BME280;17749;51.962;8.560;2023-07-31T09:53:14;99270.63;;;16.72;100.00
31096;BME280;17749;51.962;8.560;2023-07-31T09:55:42;99276.09;;;16.71;100.00
31096;BME280;17749;51.962;8.560;2023-07-31T09:58:12;99274.06;;;16.74;100.00
31096;BME280;17749;51.962;8.560;2023-07-31T10:00:39;99268.06;;;16.82;100.00
31096;BME280;17749;51.962;8.560;2023-07-31T10:03:09;99269.31;;;16.89;100.00
31096;BME280;17749;51.962;8.560;2023-07-31T10:05:40;99274.81;;;16.88;100.00
31096;BME280;17749;51.962;8.560;2023-07-31T10:08:09;99274.69;;;16.78;100.00
31096;BME280;17749;51.962;8.560;2023-07-31T10:10:41;99268.56;;;16.87;100.00
31096;BME280;17749;51.962;8.560;2023-07-31T10:13:08;99266.88;;;16.86;100.00
31096;BME280;17749;51.962;8.560;2023-07-31T10:15:36;99260.50;;;16.87;100.00
31096;BME280;17749;51.962;8.560;2023-07-31T10:18:06;99258.44;;;16.91;100.00
31096;BME280;17749;51.962;8.560;2023-07-31T10:20:33;99265.66;;;16.90;100.00
31096;BME280;17749;51.962;8.560;2023-07-31T10:23:01;99266.13;;;16.84;100.00
31096;BME280;17749;51.962;8.560;2023-07-31T10:25:28;99271.28;;;16.98;100.00
31096;BME280;17749;51.962;8.560;2023-07-31T10:27:57;99262.47;;;16.96;100.00
31096;BME280;17749;51.962;8.560;2023-07-31T10:30:29;99261.72;;;16.94;100.00
31096;BME280;17749;51.962;8.560;2023-07-31T10:32:57;99262.72;;;16.93;100.00
31096;BME280;17749;51.962;8.560;2023-07-31T10:35:25;99263.94;;;17.00;100.00
31096;BME280;17749;51.962;8.560;2023-07-31T10:37:52;99263.44;;;17.06;100.00
31096;BME280;17749;51.962;8.560;2023-07-31T10:40:27;99264.91;;;17.11;100.00
31096;BME280;17749;51.962;8.560;2023-07-31T10:42:55;99261.25;;;17.12;100.00
31096;BME280;17749;51.962;8.560;2023-07-31T10:48:01;99250.22;;;17.15;100.00
31096;BME280;17749;51.962;8.560;2023-07-31T10:50:30;99246.31;;;17.07;100.00
31096;BME280;17749;51.962;8.560;2023-07-31T10:53:00;99246.72;;;17.03;100.00
31096;BME280;17749;51.962;8.560;2023-07-31T10:57:57;99240.97;;;16.96;100.00
31096;BME280;17749;51.962;8.560;2023-07-31T11:00:29;99239.47;;;16.92;100.00
31096;BME280;17749;51.962;8.560;2023-07-31T11:03:04;99247.06;;;16.98;100.00
31096;BME280;17749;51.962;8.560;2023-07-31T11:06:04;99240.69;;;16.99;100.00
31096;BME280;17749;51.962;8.560;2023-07-31T11:08:32;99235.31;;;17.11;100.00
31096;BME280;17749;51.962;8.560;2023-07-31T11:16:18;99226.50;;;17.20;100.00
31096;BME280;17749;51.962;8.560;2023-07-31T11:18:47;99239.25;;;17.06;100.00
31096;BME280;17749;51.962;8.560;2023-07-31T11:21:16;99233.59;;;17.09;100.00
31096;BME280;17749;51.962;8.560;2023-07-31T11:23:47;99240.69;;;17.11;100.00
31096;BME280;17749;51.962;8.560;2023-07-31T11:26:15;99239.59;;;17.02;100.00
31096;BME280;17749;51.962;8.560;2023-07-31T11:28:42;99232.41;;;16.91;100.00
31096;BME280;17749;51.962;8.560;2023-07-31T11:31:10;99230.06;;;16.86;100.00
31096;BME280;17749;51.962;8.560;2023-07-31T11:33:37;99238.78;;;16.90;100.00
31096;BME280;17749;51.962;8.560;2023-07-31T11:36:04;99235.19;;;16.90;100.00
31096;BME280;17749;51.962;8.560;2023-07-31T11:38:33;99220.91;;;16.89;100.00
31096;BME280;17749;51.962;8.560;2023-07-31T11:41:02;99234.59;;;16.97;100.00
31096;BME280;17749;51.962;8.560;2023-07-31T11:43:33;99226.91;;;17.04;100.00
31096;BME280;17749;51.962;8.560;2023-07-31T11:46:01;99223.59;;;17.12;100.00
31096;BME280;17749;51.962;8.560;2023-07-31T11:48:34;99230.19;;;17.19;100.00
31096;BME280;17749;51.962;8.560;2023-07-31T11:51:10;99218.91;;;17.25;100.00
31096;BME280;17749;51.962;8.560;2023-07-31T11:53:39;99219.91;;;17.24;100.00
31096;BME280;17749;51.962;8.560;2023-07-31T11:56:10;99213.78;;;17.22;100.00
31096;BME280;17749;51.962;8.560;2023-07-31T11:58:39;99221.13;;;17.20;100.00
31096;BME280;17749;51.962;8.560;2023-07-31T12:01:07;99215.84;;;17.29;100.00
31096;BME280;17749;51.962;8.560;2023-07-31T12:03:34;99209.59;;;17.40;100.00
31096;BME280;17749;51.962;8.560;2023-07-31T12:06:02;99212.03;;;17.43;100.00
31096;BME280;17749;51.962;8.560;2023-07-31T12:08:29;99199.56;;;17.42;100.00
31096;BME280;17749;51.962;8.560;2023-07-31T12:11:02;99202.88;;;17.35;100.00
31096;BME280;17749;51.962;8.560;2023-07-31T12:13:31;99206.47;;;17.24;100.00
31096;BME280;17749;51.962;8.560;2023-07-31T12:16:03;99204.47;;;17.26;100.00
31096;BME280;17749;51.962;8.560;2023-07-31T12:18:34;99207.16;;;17.26;100.00
31096;BME280;17749;51.962;8.560;2023-07-31T12:21:05;99206.91;;;17.29;100.00
31096;BME280;17749;51.962;8.560;2023-07-31T12:23:34;99205.69;;;17.33;100.00
31096;BME280;17749;51.962;8.560;2023-07-31T12:26:08;99204.22;;;17.29;100.00
31096;BME280;17749;51.962;8.560;2023-07-31T12:28:41;99200.81;;;17.27;100.00
31096;BME280;17749;51.962;8.560;2023-07-31T12:31:11;99211.69;;;17.25;100.00
31096;BME280;17749;51.962;8.560;2023-07-31T12:33:40;99204.13;;;17.19;100.00
31096;BME280;17749;51.962;8.560;2023-07-31T12:36:15;99213.69;;;17.12;100.00
31096;BME280;17749;51.962;8.560;2023-07-31T12:38:43;99203.03;;;17.11;100.00
31096;BME280;17749;51.962;8.560;2023-07-31T12:41:11;99203.03;;;17.22;100.00
31096;BME280;17749;51.962;8.560;2023-07-31T12:43:40;99208.41;;;17.22;100.00
31096;BME280;17749;51.962;8.560;2023-07-31T12:46:08;99213.41;;;17.15;100.00
31096;BME280;17749;51.962;8.560;2023-07-31T12:48:36;99197.16;;;17.17;100.00
31096;BME280;17749;51.962;8.560;2023-07-31T12:51:03;99209.88;;;17.15;100.00
31096;BME280;17749;51.962;8.560;2023-07-31T12:53:30;99214.53;;;17.13;100.00
31096;BME280;17749;51.962;8.560;2023-07-31T12:55:58;99206.22;;;17.04;100.00
31096;BME280;17749;51.962;8.560;2023-07-31T12:58:25;99202.81;;;17.02;100.00
31096;BME280;17749;51.962;8.560;2023-07-31T13:00:52;99209.91;;;17.03;100.00
31096;BME280;17749;51.962;8.560;2023-07-31T13:03:19;99211.88;;;17.01;100.00
31096;BME280;17749;51.962;8.560;2023-07-31T13:05:46;99215.75;;;16.97;100.00
31096;BME280;17749;51.962;8.560;2023-07-31T13:08:13;99205.75;;;16.99;100.00
31096;BME280;17749;51.962;8.560;2023-07-31T13:10:43;99205.50;;;17.02;100.00
31096;BME280;17749;51.962;8.560;2023-07-31T13:13:10;99204.38;;;17.16;100.00
31096;BME280;17749;51.962;8.560;2023-07-31T13:15:37;99190.06;;;17.27;100.00
31096;BME280;17749;51.962;8.560;2023-07-31T13:18:04;99182.53;;;17.42;100.00
31096;BME280;17749;51.962;8.560;2023-07-31T13:20:31;99188.94;;;17.62;100.00
31096;BME280;17749;51.962;8.560;2023-07-31T13:22:58;99185.03;;;17.66;100.00
31096;BME280;17749;51.962;8.560;2023-07-31T13:25:25;99178.59;;;17.89;100.00
31096;BME280;17749;51.962;8.560;2023-07-31T13:27:52;99172.66;;;18.16;100.00
31096;BME280;17749;51.962;8.560;2023-07-31T13:30:19;99173.56;;;18.27;100.00
31096;BME280;17749;51.962;8.560;2023-07-31T13:32:46;99162.38;;;18.52;100.00
31096;BME280;17749;51.962;8.560;2023-07-31T13:35:13;99157.94;;;18.51;100.00
31096;BME280;17749;51.962;8.560;2023-07-31T13:37:40;99155.66;;;18.47;100.00
31096;BME280;17749;51.962;8.560;2023-07-31T13:40:07;99143.28;;;18.44;100.00
31096;BME280;17749;51.962;8.560;2023-07-31T13:42:34;99149.19;;;18.59;100.00
31096;BME280;17749;51.962;8.560;2023-07-31T13:45:01;99143.44;;;18.73;100.00
31096;BME280;17749;51.962;8.560;2023-07-31T13:47:33;99128.91;;;18.65;100.00
31096;BME280;17749;51.962;8.560;2023-07-31T13:50:01;99132.88;;;18.70;100.00
31096;BME280;17749;51.962;8.560;2023-07-31T13:52:29;99144.09;;;18.66;100.00
31096;BME280;17749;51.962;8.560;2023-07-31T13:54:56;99134.00;;;18.58;100.00
31096;BME280;17749;51.962;8.560;2023-07-31T13:57:23;99141.97;;;18.69;100.00
31096;BME280;17749;51.962;8.560;2023-07-31T13:59:50;99139.72;;;18.74;100.00
31096;BME280;17749;51.962;8.560;2023-07-31T14:02:17;99135.53;;;18.91;100.00
31096;BME280;17749;51.962;8.560;2023-07-31T14:04:44;99125.34;;;18.95;100.00
31096;BME280;17749;51.962;8.560;2023-07-31T14:07:11;99129.00;;;18.84;100.00
31096;BME280;17749;51.962;8.560;2023-07-31T14:09:38;99107.13;;;18.77;100.00
31096;BME280;17749;51.962;8.560;2023-07-31T14:12:05;99122.47;;;18.77;100.00
31096;BME280;17749;51.962;8.560;2023-07-31T14:14:32;99107.69;;;18.81;100.00
31096;BME280;17749;51.962;8.560;2023-07-31T14:17:01;99118.72;;;18.68;100.00
31096;BME280;17749;51.962;8.560;2023-07-31T14:19:29;99113.00;;;18.61;100.00
31096;BME280;17749;51.962;8.560;2023-07-31T14:21:58;99111.84;;;18.54;100.00
31096;BME280;17749;51.962;8.560;2023-07-31T14:24:36;99112.00;;;18.53;100.00
31096;BME280;17749;51.962;8.560;2023-07-31T14:27:03;99124.03;;;18.49;100.00
31096;BME280;17749;51.962;8.560;2023-07-31T14:29:30;99135.34;;;18.43;100.00
31096;BME280;17749;51.962;8.560;2023-07-31T14:31:57;99141.53;;;18.33;100.00
31096;BME280;17749;51.962;8.560;2023-07-31T14:34:24;99134.00;;;18.27;100.00
31096;BME280;17749;51.962;8.560;2023-07-31T14:36:51;99137.94;;;18.23;100.00
31096;BME280;17749;51.962;8.560;2023-07-31T14:39:18;99142.75;;;18.20;100.00
31096;BME280;17749;51.962;8.560;2023-07-31T14:41:45;99143.88;;;18.17;100.00
31096;BME280;17749;51.962;8.560;2023-07-31T14:44:13;99137.03;;;18.13;100.00
31096;BME280;17749;51.962;8.560;2023-07-31T14:46:40;99134.09;;;18.16;100.00
31096;BME280;17749;51.962;8.560;2023-07-31T14:49:07;99137.75;;;18.15;100.00
31096;BME280;17749;51.962;8.560;2023-07-31T14:51:34;99133.75;;;18.09;100.00
31096;BME280;17749;51.962;8.560;2023-07-31T14:54:01;99140.81;;;18.01;100.00
31096;BME280;17749;51.962;8.560;2023-07-31T14:56:29;99136.38;;;18.00;100.00
31096;BME280;17749;51.962;8.560;2023-07-31T14:58:57;99128.91;;;18.03;100.00
31096;BME280;17749;51.962;8.560;2023-07-31T15:01:24;99135.88;;;18.06;100.00
31096;BME280;17749;51.962;8.560;2023-07-31T15:03:51;99139.03;;;18.11;100.00
31096;BME280;17749;51.962;8.560;2023-07-31T15:06:18;99134.88;;;18.07;100.00
31096;BME280;17749;51.962;8.560;2023-07-31T15:08:45;99130.94;;;18.11;100.00
31096;BME280;17749;51.962;8.560;2023-07-31T15:11:12;99118.91;;;18.15;100.00
31096;BME280;17749;51.962;8.560;2023-07-31T15:13:41;99112.56;;;18.26;100.00
31096;BME280;17749;51.962;8.560;2023-07-31T15:16:08;99105.25;;;18.37;100.00
31096;BME280;17749;51.962;8.560;2023-07-31T15:18:35;99102.72;;;18.46;100.00
31096;BME280;17749;51.962;8.560;2023-07-31T15:21:02;99100.47;;;18.51;100.00
31096;BME280;17749;51.962;8.560;2023-07-31T15:23:29;99090.78;;;18.38;100.00
31096;BME280;17749;51.962;8.560;2023-07-31T15:25:56;99098.47;;;18.43;100.00
31096;BME280;17749;51.962;8.560;2023-07-31T15:28:23;99092.22;;;18.43;100.00
31096;BME280;17749;51.962;8.560;2023-07-31T15:30:50;99087.97;;;18.40;100.00
31096;BME280;17749;51.962;8.560;2023-07-31T15:33:18;99089.88;;;18.28;100.00
31096;BME280;17749;51.962;8.560;2023-07-31T15:35:44;99083.06;;;18.24;100.00
31096;BME280;17749;51.962;8.560;2023-07-31T15:38:12;99086.28;;;18.18;100.00
31096;BME280;17749;51.962;8.560;2023-07-31T15:40:40;99099.19;;;18.14;100.00
31096;BME280;17749;51.962;8.560;2023-07-31T15:43:07;99097.63;;;18.12;100.00
31096;BME280;17749;51.962;8.560;2023-07-31T15:45:34;99102.72;;;18.15;100.00
31096;BME280;17749;51.962;8.560;2023-07-31T15:48:01;99093.53;;;18.17;100.00
31096;BME280;17749;51.962;8.560;2023-07-31T15:50:28;99091.88;;;18.26;100.00
31096;BME280;17749;51.962;8.560;2023-07-31T15:52:55;99085.22;;;18.30;100.00
31096;BME280;17749;51.962;8.560;2023-07-31T15:55:22;99085.94;;;18.32;100.00
31096;BME280;17749;51.962;8.560;2023-07-31T15:57:51;99087.47;;;18.25;100.00
31096;BME280;17749;51.962;8.560;2023-07-31T16:00:18;99083.34;;;18.21;100.00
31096;BME280;17749;51.962;8.560;2023-07-31T16:02:45;99074.44;;;18.30;100.00
31096;BME280;17749;51.962;8.560;2023-07-31T16:05:12;99074.72;;;18.27;100.00
31096;BME280;17749;51.962;8.560;2023-07-31T16:07:39;99072.03;;;18.27;100.00
31096;BME280;17749;51.962;8.560;2023-07-31T16:10:07;99067.75;;;18.25;100.00
31096;BME280;17749;51.962;8.560;2023-07-31T16:12:34;99068.75;;;18.24;100.00
31096;BME280;17749;51.962;8.560;2023-07-31T16:15:01;99074.28;;;18.22;100.00
31096;BME280;17749;51.962;8.560;2023-07-31T16:17:28;99065.47;;;18.20;100.00
31096;BME280;17749;51.962;8.560;2023-07-31T16:19:55;99061.53;;;18.24;100.00
31096;BME280;17749;51.962;8.560;2023-07-31T16:22:22;99065.91;;;18.25;100.00
31096;BME280;17749;51.962;8.560;2023-07-31T16:24:50;99065.47;;;18.20;100.00
31096;BME280;17749;51.962;8.560;2023-07-31T16:27:17;99057.25;;;18.22;100.00
31096;BME280;17749;51.962;8.560;2023-07-31T16:29:45;99061.25;;;18.27;100.00
31096;BME280;17749;51.962;8.560;2023-07-31T16:32:12;99049.47;;;18.28;100.00
31096;BME280;17749;51.962;8.560;2023-07-31T16:34:39;99041.25;;;18.30;100.00
31096;BME280;17749;51.962;8.560;2023-07-31T16:37:07;99038.44;;;18.31;100.00
31096;BME280;17749;51.962;8.560;2023-07-31T16:39:34;99031.59;;;18.27;100.00
31096;BME280;17749;51.962;8.560;2023-07-31T16:42:05;99026.66;;;18.32;100.00
31096;BME280;17749;51.962;8.560;2023-07-31T16:44:32;99023.25;;;18.30;100.00
31096;BME280;17749;51.962;8.560;2023-07-31T16:46:59;99018.69;;;18.21;100.00
31096;BME280;17749;51.962;8.560;2023-07-31T16:49:26;99018.69;;;18.21;100.00
31096;BME280;17749;51.962;8.560;2023-07-31T16:51:53;99009.59;;;18.22;100.00
31096;BME280;17749;51.962;8.560;2023-07-31T16:54:20;99004.78;;;18.26;100.00
31096;BME280;17749;51.962;8.560;2023-07-31T16:56:47;98998.69;;;18.24;100.00
31096;BME280;17749;51.962;8.560;2023-07-31T16:59:25;98999.63;;;18.13;100.00
31096;BME280;17749;51.962;8.560;2023-07-31T17:01:52;98995.97;;;18.14;100.00
31096;BME280;17749;51.962;8.560;2023-07-31T17:04:22;99000.19;;;18.07;100.00
31096;BME280;17749;51.962;8.560;2023-07-31T17:06:49;98992.09;;;18.07;100.00
31096;BME280;17749;51.962;8.560;2023-07-31T17:09:16;98992.81;;;18.09;100.00
31096;BME280;17749;51.962;8.560;2023-07-31T17:11:44;98993.69;;;18.09;100.00
31096;BME280;17749;51.962;8.560;2023-07-31T17:14:10;98996.66;;;18.06;100.00
31096;BME280;17749;51.962;8.560;2023-07-31T17:16:41;98990.94;;;18.00;100.00
31096;BME280;17749;51.962;8.560;2023-07-31T17:19:10;98987.78;;;17.94;100.00
31096;BME280;17749;51.962;8.560;2023-07-31T17:21:37;98980.53;;;17.85;100.00
31096;BME280;17749;51.962;8.560;2023-07-31T17:24:04;98974.50;;;17.72;100.00
31096;BME280;17749;51.962;8.560;2023-07-31T17:26:32;98975.63;;;17.69;100.00
31096;BME280;17749;51.962;8.560;2023-07-31T17:28:59;98981.41;;;17.65;100.00
31096;BME280;17749;51.962;8.560;2023-07-31T17:31:28;98970.91;;;17.62;100.00
31096;BME280;17749;51.962;8.560;2023-07-31T17:33:57;98971.03;;;17.60;100.00
31096;BME280;17749;51.962;8.560;2023-07-31T17:36:24;98972.16;;;17.58;100.00
31096;BME280;17749;51.962;8.560;2023-07-31T17:38:51;98967.38;;;17.61;100.00
31096;BME280;17749;51.962;8.560;2023-07-31T17:41:18;98966.53;;;17.61;100.00
31096;BME280;17749;51.962;8.560;2023-07-31T17:43:45;98964.63;;;17.51;100.00
31096;BME280;17749;51.962;8.560;2023-07-31T17:46:12;98968.69;;;17.46;100.00
31096;BME280;17749;51.962;8.560;2023-07-31T17:48:40;98958.47;;;17.40;100.00
31096;BME280;17749;51.962;8.560;2023-07-31T17:51:09;98956.16;;;17.35;100.00
31096;BME280;17749;51.962;8.560;2023-07-31T17:53:36;98954.59;;;17.33;100.00
31096;BME280;17749;51.962;8.560;2023-07-31T17:56:03;98945.06;;;17.28;100.00
31096;BME280;17749;51.962;8.560;2023-07-31T17:58:31;98942.81;;;17.24;100.00
31096;BME280;17749;51.962;8.560;2023-07-31T18:00:58;98936.44;;;17.25;100.00
31096;BME280;17749;51.962;8.560;2023-07-31T18:03:25;98932.03;;;17.24;100.00
31096;BME280;17749;51.962;8.560;2023-07-31T18:05:52;98926.66;;;17.24;100.00
31096;BME280;17749;51.962;8.560;2023-07-31T18:08:19;98926.91;;;17.21;100.00